sensor_id;sensor_type;location;lat;lon;timestamp;temperature;humidity
52869;DHT22;39100;53.480;6.158;2023-06-24T00:00:02;15.40;99.90
52869;DHT22;39100;53.480;6.158;2023-06-24T00:02:32;15.50;99.90
52869;DHT22;39100;53.480;6.158;2023-06-24T00:04:58;15.60;99.90
52869;DHT22;39100;53.480;6.158;2023-06-24T00:07:25;15.50;99.90
52869;DHT22;39100;53.480;6.158;2023-06-24T00:09:52;15.50;99.90
52869;DHT22;39100;53.480;6.158;2023-06-24T00:12:17;15.50;99.90
52869;DHT22;39100;53.480;6.158;2023-06-24T00:14:48;15.40;99.90
52869;DHT22;39100;53.480;6.158;2023-06-24T00:17:14;15.40;99.90
52869;DHT22;39100;53.480;6.158;2023-06-24T00:19:41;15.40;99.90
52869;DHT22;39100;53.480;6.158;2023-06-24T00:22:09;15.30;99.90
52869;DHT22;39100;53.480;6.158;2023-06-24T00:24:35;15.30;99.90
52869;DHT22;39100;53.480;6.158;2023-06-24T00:27:00;15.20;99.90
52869;DHT22;39100;53.480;6.158;2023-06-24T00:29:26;15.20;99.90
52869;DHT22;39100;53.480;6.158;2023-06-24T00:31:51;15.20;99.90
52869;DHT22;39100;53.480;6.158;2023-06-24T00:34:17;15.20;99.90
52869;DHT22;39100;53.480;6.158;2023-06-24T00:36:45;15.20;99.90
52869;DHT22;39100;53.480;6.158;2023-06-24T00:39:12;15.20;99.90
52869;DHT22;39100;53.480;6.158;2023-06-24T00:41:38;15.20;99.90
52869;DHT22;39100;53.480;6.158;2023-06-24T00:44:04;15.20;99.90
52869;DHT22;39100;53.480;6.158;2023-06-24T00:46:29;15.30;99.90
52869;DHT22;39100;53.480;6.158;2023-06-24T00:48:59;15.40;99.90
52869;DHT22;39100;53.480;6.158;2023-06-24T00:51:28;15.50;99.90
52869;DHT22;39100;53.480;6.158;2023-06-24T00:53:57;15.60;99.90
52869;DHT22;39100;53.480;6.158;2023-06-24T00:56:27;15.80;99.90
52869;DHT22;39100;53.480;6.158;2023-06-24T00:58:54;15.80;99.90
52869;DHT22;39100;53.480;6.158;2023-06-24T01:01:20;15.80;99.90
52869;DHT22;39100;53.480;6.158;2023-06-24T01:03:46;15.90;99.90
52869;DHT22;39100;53.480;6.158;2023-06-24T01:06:13;16.00;99.90
52869;DHT22;39100;53.480;6.158;2023-06-24T01:08:39;16.30;99.90
52869;DHT22;39100;53.480;6.158;2023-06-24T01:11:04;16.10;99.90
52869;DHT22;39100;53.480;6.158;2023-06-24T01:13:30;16.10;99.90
52869;DHT22;39100;53.480;6.158;2023-06-24T01:16:04;16.10;99.90
52869;DHT22;39100;53.480;6.158;2023-06-24T01:18:46;16.20;99.90
52869;DHT22;39100;53.480;6.158;2023-06-24T01:21:42;16.30;99.90
52869;DHT22;39100;53.480;6.158;2023-06-24T01:24:26;16.20;99.90
52869;DHT22;39100;53.480;6.158;2023-06-24T01:30:10;16.30;99.90
52869;DHT22;39100;53.480;6.158;2023-06-24T01:32:51;16.30;99.90
52869;DHT22;39100;53.480;6.158;2023-06-24T01:35:21;16.30;99.90
52869;DHT22;39100;53.480;6.158;2023-06-24T01:37:51;16.30;99.90
52869;DHT22;39100;53.480;6.158;2023-06-24T01:40:28;16.30;99.90
52869;DHT22;39100;53.480;6.158;2023-06-24T01:42:58;16.30;99.90
52869;DHT22;39100;53.480;6.158;2023-06-24T01:45:40;16.30;99.90
52869;DHT22;39100;53.480;6.158;2023-06-24T01:50:39;16.30;99.90
52869;DHT22;39100;53.480;6.158;2023-06-24T01:53:08;16.30;99.90
52869;DHT22;39100;53.480;6.158;2023-06-24T01:55:35;16.40;99.90
52869;DHT22;39100;53.480;6.158;2023-06-24T01:58:05;16.40;99.90
52869;DHT22;39100;53.480;6.158;2023-06-24T02:00:33;16.40;99.90
52869;DHT22;39100;53.480;6.158;2023-06-24T02:03:01;16.40;99.90
52869;DHT22;39100;53.480;6.158;2023-06-24T02:05:27;16.50;99.90
52869;DHT22;39100;53.480;6.158;2023-06-24T02:07:54;16.40;99.90
52869;DHT22;39100;53.480;6.158;2023-06-24T02:10:22;16.50;99.90
52869;DHT22;39100;53.480;6.158;2023-06-24T02:12:50;16.50;99.90
52869;DHT22;39100;53.480;6.158;2023-06-24T02:15:18;16.40;99.90
52869;DHT22;39100;53.480;6.158;2023-06-24T02:17:46;16.50;99.90
52869;DHT22;39100;53.480;6.158;2023-06-24T02:20:14;16.40;99.90
52869;DHT22;39100;53.480;6.158;2023-06-24T02:22:41;16.50;99.90
52869;DHT22;39100;53.480;6.158;2023-06-24T02:25:08;16.50;99.90
52869;DHT22;39100;53.480;6.158;2023-06-24T02:27:35;16.50;99.90
52869;DHT22;39100;53.480;6.158;2023-06-24T02:30:03;16.50;99.90
52869;DHT22;39100;53.480;6.158;2023-06-24T02:32:28;16.50;99.90
52869;DHT22;39100;53.480;6.158;2023-06-24T02:34:54;16.50;99.90
52869;DHT22;39100;53.480;6.158;2023-06-24T02:37:20;16.50;99.90
52869;DHT22;39100;53.480;6.158;2023-06-24T02:39:45;16.70;99.90
52869;DHT22;39100;53.480;6.158;2023-06-24T02:42:11;16.40;99.90
52869;DHT22;39100;53.480;6.158;2023-06-24T02:44:40;16.40;99.90
52869;DHT22;39100;53.480;6.158;2023-06-24T02:47:08;16.40;99.90
52869;DHT22;39100;53.480;6.158;2023-06-24T02:49:35;16.40;99.90
52869;DHT22;39100;53.480;6.158;2023-06-24T02:52:02;16.40;99.90
52869;DHT22;39100;53.480;6.158;2023-06-24T02:54:28;16.40;99.90
52869;DHT22;39100;53.480;6.158;2023-06-24T02:56:55;16.30;99.90
52869;DHT22;39100;53.480;6.158;2023-06-24T02:59:23;16.30;99.90
52869;DHT22;39100;53.480;6.158;2023-06-24T03:01:50;16.30;99.90
52869;DHT22;39100;53.480;6.158;2023-06-24T03:04:17;16.30;99.90
52869;DHT22;39100;53.480;6.158;2023-06-24T03:06:44;16.30;99.90
52869;DHT22;39100;53.480;6.158;2023-06-24T03:09:10;16.70;99.90
52869;DHT22;39100;53.480;6.158;2023-06-24T03:11:43;16.30;99.90
52869;DHT22;39100;53.480;6.158;2023-06-24T03:14:10;16.30;99.90
52869;DHT22;39100;53.480;6.158;2023-06-24T03:16:35;16.40;99.90
52869;DHT22;39100;53.480;6.158;2023-06-24T03:19:02;16.40;99.90
52869;DHT22;39100;53.480;6.158;2023-06-24T03:21:27;16.40;99.90
52869;DHT22;39100;53.480;6.158;2023-06-24T03:23:57;16.50;99.90
52869;DHT22;39100;53.480;6.158;2023-06-24T03:26:25;16.40;99.90
52869;DHT22;39100;53.480;6.158;2023-06-24T03:28:56;16.50;99.90
52869;DHT22;39100;53.480;6.158;2023-06-24T03:31:21;16.50;99.90
52869;DHT22;39100;53.480;6.158;2023-06-24T03:33:48;16.40;99.90
52869;DHT22;39100;53.480;6.158;2023-06-24T03:36:14;16.40;99.90
52869;DHT22;39100;53.480;6.158;2023-06-24T03:38:40;16.50;99.90
52869;DHT22;39100;53.480;6.158;2023-06-24T03:41:06;16.40;99.90
52869;DHT22;39100;53.480;6.158;2023-06-24T03:43:31;16.70;99.90
52869;DHT22;39100;53.480;6.158;2023-06-24T03:45:57;16.60;99.90
52869;DHT22;39100;53.480;6.158;2023-06-24T03:48:22;16.50;99.90
52869;DHT22;39100;53.480;6.158;2023-06-24T03:50:48;16.50;99.90
52869;DHT22;39100;53.480;6.158;2023-06-24T03:53:13;16.50;99.90
52869;DHT22;39100;53.480;6.158;2023-06-24T03:55:39;16.50;99.90
52869;DHT22;39100;53.480;6.158;2023-06-24T03:58:05;16.50;99.90
52869;DHT22;39100;53.480;6.158;2023-06-24T04:00:30;16.50;99.90
52869;DHT22;39100;53.480;6.158;2023-06-24T04:02:56;16.70;99.90
52869;DHT22;39100;53.480;6.158;2023-06-24T04:05:22;16.50;99.90
52869;DHT22;39100;53.480;6.158;2023-06-24T04:07:49;16.60;99.90
52869;DHT22;39100;53.480;6.158;2023-06-24T04:10:16;16.60;99.90
52869;DHT22;39100;53.480;6.158;2023-06-24T04:12:42;16.60;99.90
52869;DHT22;39100;53.480;6.158;2023-06-24T04:15:08;16.60;99.90
52869;DHT22;39100;53.480;6.158;2023-06-24T04:17:34;16.60;99.90
52869;DHT22;39100;53.480;6.158;2023-06-24T04:20:00;16.70;99.90
52869;DHT22;39100;53.480;6.158;2023-06-24T04:22:25;16.70;99.90
52869;DHT22;39100;53.480;6.158;2023-06-24T04:24:51;16.70;99.90
52869;DHT22;39100;53.480;6.158;2023-06-24T04:27:17;16.70;99.90
52869;DHT22;39100;53.480;6.158;2023-06-24T04:29:42;16.80;99.90
52869;DHT22;39100;53.480;6.158;2023-06-24T04:32:08;16.80;99.90
52869;DHT22;39100;53.480;6.158;2023-06-24T04:34:33;16.80;99.90
52869;DHT22;39100;53.480;6.158;2023-06-24T04:36:59;16.80;99.90
52869;DHT22;39100;53.480;6.158;2023-06-24T04:39:25;16.80;99.90
52869;DHT22;39100;53.480;6.158;2023-06-24T04:41:50;16.80;99.90
52869;DHT22;39100;53.480;6.158;2023-06-24T04:44:16;16.80;99.90
52869;DHT22;39100;53.480;6.158;2023-06-24T04:46:41;16.90;99.90
52869;DHT22;39100;53.480;6.158;2023-06-24T04:49:07;17.10;99.90
52869;DHT22;39100;53.480;6.158;2023-06-24T04:51:33;17.00;99.90
52869;DHT22;39100;53.480;6.158;2023-06-24T04:53:58;17.00;99.90
52869;DHT22;39100;53.480;6.158;2023-06-24T04:56:24;17.10;99.90
52869;DHT22;39100;53.480;6.158;2023-06-24T04:58:51;17.20;99.90
52869;DHT22;39100;53.480;6.158;2023-06-24T05:01:17;17.20;99.90
52869;DHT22;39100;53.480;6.158;2023-06-24T05:03:43;17.40;99.90
52869;DHT22;39100;53.480;6.158;2023-06-24T05:06:08;17.90;99.90
52869;DHT22;39100;53.480;6.158;2023-06-24T05:08:34;17.50;99.90
52869;DHT22;39100;53.480;6.158;2023-06-24T05:10:59;17.60;99.90
52869;DHT22;39100;53.480;6.158;2023-06-24T05:13:27;17.60;99.90
52869;DHT22;39100;53.480;6.158;2023-06-24T05:15:53;17.60;99.90
52869;DHT22;39100;53.480;6.158;2023-06-24T05:18:18;17.60;99.90
52869;DHT22;39100;53.480;6.158;2023-06-24T05:20:44;17.60;99.90
52869;DHT22;39100;53.480;6.158;2023-06-24T05:23:09;17.60;99.90
52869;DHT22;39100;53.480;6.158;2023-06-24T05:25:35;17.70;99.90
52869;DHT22;39100;53.480;6.158;2023-06-24T05:28:00;17.80;99.90
52869;DHT22;39100;53.480;6.158;2023-06-24T05:30:26;17.70;99.90
52869;DHT22;39100;53.480;6.158;2023-06-24T05:32:51;17.80;99.90
52869;DHT22;39100;53.480;6.158;2023-06-24T05:35:17;17.80;99.90
52869;DHT22;39100;53.480;6.158;2023-06-24T05:37:43;17.90;99.90
52869;DHT22;39100;53.480;6.158;2023-06-24T05:40:08;17.90;99.90
52869;DHT22;39100;53.480;6.158;2023-06-24T05:42:34;17.90;99.90
52869;DHT22;39100;53.480;6.158;2023-06-24T05:45:00;18.00;99.90
52869;DHT22;39100;53.480;6.158;2023-06-24T05:47:26;18.00;99.90
52869;DHT22;39100;53.480;6.158;2023-06-24T05:49:51;18.00;99.90
52869;DHT22;39100;53.480;6.158;2023-06-24T05:52:17;18.00;99.90
52869;DHT22;39100;53.480;6.158;2023-06-24T05:54:42;18.30;99.90
52869;DHT22;39100;53.480;6.158;2023-06-24T05:57:08;18.10;99.90
52869;DHT22;39100;53.480;6.158;2023-06-24T05:59:35;18.10;99.90
52869;DHT22;39100;53.480;6.158;2023-06-24T06:02:01;18.10;99.90
52869;DHT22;39100;53.480;6.158;2023-06-24T06:04:29;18.30;99.90
52869;DHT22;39100;53.480;6.158;2023-06-24T06:06:55;18.10;99.90
52869;DHT22;39100;53.480;6.158;2023-06-24T06:09:21;18.20;99.90
52869;DHT22;39100;53.480;6.158;2023-06-24T06:11:47;18.20;99.90
52869;DHT22;39100;53.480;6.158;2023-06-24T06:14:13;18.30;99.90
52869;DHT22;39100;53.480;6.158;2023-06-24T06:16:39;18.30;99.90
52869;DHT22;39100;53.480;6.158;2023-06-24T06:19:04;18.40;99.90
52869;DHT22;39100;53.480;6.158;2023-06-24T06:21:31;18.50;99.90
52869;DHT22;39100;53.480;6.158;2023-06-24T06:23:56;18.50;99.90
52869;DHT22;39100;53.480;6.158;2023-06-24T06:26:22;18.60;99.90
52869;DHT22;39100;53.480;6.158;2023-06-24T06:28:47;18.70;99.90
52869;DHT22;39100;53.480;6.158;2023-06-24T06:31:14;18.70;99.90
52869;DHT22;39100;53.480;6.158;2023-06-24T06:33:39;18.80;99.90
52869;DHT22;39100;53.480;6.158;2023-06-24T06:36:05;18.90;99.90
52869;DHT22;39100;53.480;6.158;2023-06-24T06:38:33;19.00;99.90
52869;DHT22;39100;53.480;6.158;2023-06-24T06:41:00;19.10;99.90
52869;DHT22;39100;53.480;6.158;2023-06-24T06:43:25;19.10;99.90
52869;DHT22;39100;53.480;6.158;2023-06-24T06:45:51;19.20;99.90
52869;DHT22;39100;53.480;6.158;2023-06-24T06:48:16;19.20;99.90
52869;DHT22;39100;53.480;6.158;2023-06-24T06:50:42;19.20;99.90
52869;DHT22;39100;53.480;6.158;2023-06-24T06:53:08;19.40;99.90
52869;DHT22;39100;53.480;6.158;2023-06-24T06:55:33;19.40;99.90
52869;DHT22;39100;53.480;6.158;2023-06-24T06:57:59;19.50;99.90
52869;DHT22;39100;53.480;6.158;2023-06-24T07:00:24;19.60;99.90
52869;DHT22;39100;53.480;6.158;2023-06-24T07:02:50;19.70;99.90
52869;DHT22;39100;53.480;6.158;2023-06-24T07:05:15;20.00;99.90
52869;DHT22;39100;53.480;6.158;2023-06-24T07:07:41;20.20;99.90
52869;DHT22;39100;53.480;6.158;2023-06-24T07:10:09;20.40;99.90
52869;DHT22;39100;53.480;6.158;2023-06-24T07:12:35;20.60;99.90
52869;DHT22;39100;53.480;6.158;2023-06-24T07:15:00;20.60;99.90
52869;DHT22;39100;53.480;6.158;2023-06-24T07:17:26;20.80;99.90
52869;DHT22;39100;53.480;6.158;2023-06-24T07:19:51;20.90;99.90
52869;DHT22;39100;53.480;6.158;2023-06-24T07:22:17;21.00;99.90
52869;DHT22;39100;53.480;6.158;2023-06-24T07:24:42;21.20;99.90
52869;DHT22;39100;53.480;6.158;2023-06-24T07:27:08;21.10;99.90
52869;DHT22;39100;53.480;6.158;2023-06-24T07:29:34;21.20;99.90
52869;DHT22;39100;53.480;6.158;2023-06-24T07:31:59;21.30;99.90
52869;DHT22;39100;53.480;6.158;2023-06-24T07:34:25;21.50;99.90
52869;DHT22;39100;53.480;6.158;2023-06-24T07:36:50;21.30;99.90
52869;DHT22;39100;53.480;6.158;2023-06-24T07:39:16;21.30;99.90
52869;DHT22;39100;53.480;6.158;2023-06-24T07:41:42;21.40;99.90
52869;DHT22;39100;53.480;6.158;2023-06-24T07:44:08;21.40;99.90
52869;DHT22;39100;53.480;6.158;2023-06-24T07:46:34;21.50;99.90
52869;DHT22;39100;53.480;6.158;2023-06-24T07:49:00;21.70;99.90
52869;DHT22;39100;53.480;6.158;2023-06-24T07:51:26;21.90;99.90
52869;DHT22;39100;53.480;6.158;2023-06-24T07:53:52;21.80;99.90
52869;DHT22;39100;53.480;6.158;2023-06-24T07:56:18;22.10;99.90
52869;DHT22;39100;53.480;6.158;2023-06-24T07:58:43;22.20;99.90
52869;DHT22;39100;53.480;6.158;2023-06-24T08:01:09;22.20;99.90
52869;DHT22;39100;53.480;6.158;2023-06-24T08:03:34;22.20;99.90
52869;DHT22;39100;53.480;6.158;2023-06-24T08:06:02;21.90;99.90
52869;DHT22;39100;53.480;6.158;2023-06-24T08:08:28;22.10;99.90
52869;DHT22;39100;53.480;6.158;2023-06-24T08:10:53;22.20;99.90
52869;DHT22;39100;53.480;6.158;2023-06-24T08:13:19;22.30;99.90
52869;DHT22;39100;53.480;6.158;2023-06-24T08:15:44;22.50;99.90
52869;DHT22;39100;53.480;6.158;2023-06-24T08:18:10;22.50;99.90
52869;DHT22;39100;53.480;6.158;2023-06-24T08:20:36;22.70;99.90
52869;DHT22;39100;53.480;6.158;2023-06-24T08:23:02;23.00;99.90
52869;DHT22;39100;53.480;6.158;2023-06-24T08:25:27;23.40;99.90
52869;DHT22;39100;53.480;6.158;2023-06-24T08:27:53;23.70;99.90
52869;DHT22;39100;53.480;6.158;2023-06-24T08:30:18;23.70;99.90
52869;DHT22;39100;53.480;6.158;2023-06-24T08:32:44;23.50;99.90
52869;DHT22;39100;53.480;6.158;2023-06-24T08:35:10;24.00;99.90
52869;DHT22;39100;53.480;6.158;2023-06-24T08:37:36;23.90;99.90
52869;DHT22;39100;53.480;6.158;2023-06-24T08:40:03;24.30;99.90
52869;DHT22;39100;53.480;6.158;2023-06-24T08:42:30;24.20;99.90
52869;DHT22;39100;53.480;6.158;2023-06-24T08:44:55;24.30;99.90
52869;DHT22;39100;53.480;6.158;2023-06-24T08:47:24;24.50;99.90
52869;DHT22;39100;53.480;6.158;2023-06-24T08:49:53;24.70;99.90
52869;DHT22;39100;53.480;6.158;2023-06-24T08:52:25;24.80;99.90
52869;DHT22;39100;53.480;6.158;2023-06-24T08:54:52;25.00;99.90
52869;DHT22;39100;53.480;6.158;2023-06-24T08:57:20;25.20;99.90
52869;DHT22;39100;53.480;6.158;2023-06-24T08:59:46;25.20;99.90
52869;DHT22;39100;53.480;6.158;2023-06-24T09:02:12;25.10;99.90
52869;DHT22;39100;53.480;6.158;2023-06-24T09:04:39;25.20;99.90
52869;DHT22;39100;53.480;6.158;2023-06-24T09:07:05;25.30;99.90
52869;DHT22;39100;53.480;6.158;2023-06-24T09:09:31;25.50;99.90
52869;DHT22;39100;53.480;6.158;2023-06-24T09:11:59;25.50;99.90
52869;DHT22;39100;53.480;6.158;2023-06-24T09:14:26;25.50;99.90
52869;DHT22;39100;53.480;6.158;2023-06-24T09:16:57;25.80;99.90
52869;DHT22;39100;53.480;6.158;2023-06-24T09:19:24;26.00;99.90
52869;DHT22;39100;53.480;6.158;2023-06-24T09:21:50;26.00;99.90
52869;DHT22;39100;53.480;6.158;2023-06-24T09:24:18;26.10;99.90
52869;DHT22;39100;53.480;6.158;2023-06-24T09:26:44;25.90;99.90
52869;DHT22;39100;53.480;6.158;2023-06-24T09:29:13;26.00;99.90
52869;DHT22;39100;53.480;6.158;2023-06-24T09:31:49;26.00;99.90
52869;DHT22;39100;53.480;6.158;2023-06-24T09:34:15;25.80;99.90
52869;DHT22;39100;53.480;6.158;2023-06-24T09:36:44;25.80;99.90
52869;DHT22;39100;53.480;6.158;2023-06-24T09:39:11;25.80;99.90
52869;DHT22;39100;53.480;6.158;2023-06-24T09:41:40;25.80;99.90
52869;DHT22;39100;53.480;6.158;2023-06-24T09:44:11;25.50;99.90
52869;DHT22;39100;53.480;6.158;2023-06-24T09:46:37;25.70;99.90
52869;DHT22;39100;53.480;6.158;2023-06-24T09:49:04;25.70;99.90
52869;DHT22;39100;53.480;6.158;2023-06-24T09:51:33;25.60;99.90
52869;DHT22;39100;53.480;6.158;2023-06-24T09:54:01;25.50;99.90
52869;DHT22;39100;53.480;6.158;2023-06-24T09:56:28;25.70;99.90
52869;DHT22;39100;53.480;6.158;2023-06-24T09:58:54;25.80;99.90
52869;DHT22;39100;53.480;6.158;2023-06-24T10:01:20;25.70;99.90
52869;DHT22;39100;53.480;6.158;2023-06-24T10:03:46;25.60;99.90
52869;DHT22;39100;53.480;6.158;2023-06-24T10:06:11;25.70;99.90
52869;DHT22;39100;53.480;6.158;2023-06-24T10:08:37;25.80;99.90
52869;DHT22;39100;53.480;6.158;2023-06-24T10:11:03;25.70;99.90
52869;DHT22;39100;53.480;6.158;2023-06-24T10:13:29;25.90;99.90
52869;DHT22;39100;53.480;6.158;2023-06-24T10:15:56;26.10;99.90
52869;DHT22;39100;53.480;6.158;2023-06-24T10:20:56;25.90;99.90
52869;DHT22;39100;53.480;6.158;2023-06-24T10:23:22;25.90;99.90
52869;DHT22;39100;53.480;6.158;2023-06-24T10:25:48;25.90;99.90
52869;DHT22;39100;53.480;6.158;2023-06-24T10:28:14;25.90;99.90
52869;DHT22;39100;53.480;6.158;2023-06-24T10:30:39;26.00;99.90
52869;DHT22;39100;53.480;6.158;2023-06-24T10:33:19;26.20;99.90
52869;DHT22;39100;53.480;6.158;2023-06-24T10:35:44;26.00;99.90
52869;DHT22;39100;53.480;6.158;2023-06-24T10:38:10;26.10;99.90
52869;DHT22;39100;53.480;6.158;2023-06-24T10:40:41;26.10;99.90
52869;DHT22;39100;53.480;6.158;2023-06-24T10:43:33;26.10;99.90
52869;DHT22;39100;53.480;6.158;2023-06-24T10:46:14;26.20;99.90
52869;DHT22;39100;53.480;6.158;2023-06-24T10:48:41;26.20;99.90
52869;DHT22;39100;53.480;6.158;2023-06-24T10:51:06;26.10;99.90
52869;DHT22;39100;53.480;6.158;2023-06-24T10:53:32;26.20;99.90
52869;DHT22;39100;53.480;6.158;2023-06-24T10:55:58;26.30;99.90
52869;DHT22;39100;53.480;6.158;2023-06-24T10:58:24;26.20;99.90
52869;DHT22;39100;53.480;6.158;2023-06-24T11:00:49;26.40;99.90
52869;DHT22;39100;53.480;6.158;2023-06-24T11:03:16;26.60;99.90
52869;DHT22;39100;53.480;6.158;2023-06-24T11:05:44;26.60;99.90
52869;DHT22;39100;53.480;6.158;2023-06-24T11:08:10;26.90;99.90
52869;DHT22;39100;53.480;6.158;2023-06-24T11:10:47;26.70;99.90
52869;DHT22;39100;53.480;6.158;2023-06-24T11:13:13;26.70;99.90
52869;DHT22;39100;53.480;6.158;2023-06-24T11:15:40;26.80;99.90
52869;DHT22;39100;53.480;6.158;2023-06-24T11:18:09;26.70;99.90
52869;DHT22;39100;53.480;6.158;2023-06-24T11:20:36;27.00;99.90
52869;DHT22;39100;53.480;6.158;2023-06-24T11:23:06;26.90;99.90
52869;DHT22;39100;53.480;6.158;2023-06-24T11:25:41;27.00;99.90
52869;DHT22;39100;53.480;6.158;2023-06-24T11:28:18;27.10;99.90
52869;DHT22;39100;53.480;6.158;2023-06-24T11:30:44;27.30;99.90
52869;DHT22;39100;53.480;6.158;2023-06-24T11:33:09;27.30;99.90
52869;DHT22;39100;53.480;6.158;2023-06-24T11:35:35;27.50;99.90
52869;DHT22;39100;53.480;6.158;2023-06-24T11:38:02;27.50;99.90
52869;DHT22;39100;53.480;6.158;2023-06-24T11:40:27;27.60;99.90
52869;DHT22;39100;53.480;6.158;2023-06-24T11:42:55;27.70;99.90
52869;DHT22;39100;53.480;6.158;2023-06-24T11:45:21;27.40;99.90
52869;DHT22;39100;53.480;6.158;2023-06-24T11:47:47;27.50;99.90
52869;DHT22;39100;53.480;6.158;2023-06-24T11:50:14;27.50;99.90
52869;DHT22;39100;53.480;6.158;2023-06-24T11:52:41;27.50;99.90
52869;DHT22;39100;53.480;6.158;2023-06-24T11:55:25;27.50;99.90
52869;DHT22;39100;53.480;6.158;2023-06-24T12:00:29;27.60;99.90
52869;DHT22;39100;53.480;6.158;2023-06-24T12:02:57;27.40;99.90
52869;DHT22;39100;53.480;6.158;2023-06-24T12:05:25;27.60;99.90
52869;DHT22;39100;53.480;6.158;2023-06-24T12:08:13;27.50;99.90
52869;DHT22;39100;53.480;6.158;2023-06-24T12:10:43;27.50;99.90
52869;DHT22;39100;53.480;6.158;2023-06-24T12:13:09;27.70;99.90
52869;DHT22;39100;53.480;6.158;2023-06-24T12:15:35;27.80;99.90
52869;DHT22;39100;53.480;6.158;2023-06-24T12:18:01;27.90;99.90
52869;DHT22;39100;53.480;6.158;2023-06-24T12:20:28;27.80;99.90
52869;DHT22;39100;53.480;6.158;2023-06-24T12:22:54;28.10;99.90
52869;DHT22;39100;53.480;6.158;2023-06-24T12:25:20;27.90;99.90
52869;DHT22;39100;53.480;6.158;2023-06-24T12:27:46;28.00;99.90
52869;DHT22;39100;53.480;6.158;2023-06-24T12:30:13;28.30;99.90
52869;DHT22;39100;53.480;6.158;2023-06-24T12:32:39;28.10;99.90
52869;DHT22;39100;53.480;6.158;2023-06-24T12:35:06;28.20;99.90
52869;DHT22;39100;53.480;6.158;2023-06-24T12:37:34;28.20;99.90
52869;DHT22;39100;53.480;6.158;2023-06-24T12:40:01;28.20;99.90
52869;DHT22;39100;53.480;6.158;2023-06-24T12:42:27;28.00;99.90
52869;DHT22;39100;53.480;6.158;2023-06-24T12:44:53;28.10;99.90
52869;DHT22;39100;53.480;6.158;2023-06-24T12:47:20;28.10;99.90
52869;DHT22;39100;53.480;6.158;2023-06-24T12:49:45;28.10;99.90
52869;DHT22;39100;53.480;6.158;2023-06-24T12:52:12;28.00;99.90
52869;DHT22;39100;53.480;6.158;2023-06-24T12:54:38;28.00;99.90
52869;DHT22;39100;53.480;6.158;2023-06-24T12:57:04;28.20;99.90
52869;DHT22;39100;53.480;6.158;2023-06-24T12:59:30;28.10;99.90
52869;DHT22;39100;53.480;6.158;2023-06-24T13:01:55;28.10;99.90
52869;DHT22;39100;53.480;6.158;2023-06-24T13:04:21;27.90;99.90
52869;DHT22;39100;53.480;6.158;2023-06-24T13:06:48;27.90;99.90
52869;DHT22;39100;53.480;6.158;2023-06-24T13:09:16;27.80;99.90
52869;DHT22;39100;53.480;6.158;2023-06-24T13:11:41;27.70;99.90
52869;DHT22;39100;53.480;6.158;2023-06-24T13:14:08;27.80;99.90
52869;DHT22;39100;53.480;6.158;2023-06-24T13:16:38;27.70;99.90
52869;DHT22;39100;53.480;6.158;2023-06-24T13:19:03;27.80;99.90
52869;DHT22;39100;53.480;6.158;2023-06-24T13:21:29;27.70;99.90
52869;DHT22;39100;53.480;6.158;2023-06-24T13:23:55;27.80;99.90
52869;DHT22;39100;53.480;6.158;2023-06-24T13:26:20;27.90;99.90
52869;DHT22;39100;53.480;6.158;2023-06-24T13:28:46;27.90;99.90
52869;DHT22;39100;53.480;6.158;2023-06-24T13:31:11;28.00;99.90
52869;DHT22;39100;53.480;6.158;2023-06-24T13:33:37;27.80;99.90
52869;DHT22;39100;53.480;6.158;2023-06-24T13:36:04;27.80;99.90
52869;DHT22;39100;53.480;6.158;2023-06-24T13:38:32;27.80;99.90
52869;DHT22;39100;53.480;6.158;2023-06-24T13:40:57;27.70;99.90
52869;DHT22;39100;53.480;6.158;2023-06-24T13:43:23;27.70;99.90
52869;DHT22;39100;53.480;6.158;2023-06-24T13:45:48;27.80;99.90
52869;DHT22;39100;53.480;6.158;2023-06-24T13:48:14;27.40;99.90
52869;DHT22;39100;53.480;6.158;2023-06-24T13:50:39;27.40;99.90
52869;DHT22;39100;53.480;6.158;2023-06-24T13:53:05;27.10;99.90
52869;DHT22;39100;53.480;6.158;2023-06-24T13:55:31;27.30;99.90
52869;DHT22;39100;53.480;6.158;2023-06-24T13:57:57;27.40;99.90
52869;DHT22;39100;53.480;6.158;2023-06-24T14:00:23;27.40;99.90
52869;DHT22;39100;53.480;6.158;2023-06-24T14:02:48;27.20;99.90
52869;DHT22;39100;53.480;6.158;2023-06-24T14:05:14;27.30;99.90
52869;DHT22;39100;53.480;6.158;2023-06-24T14:07:40;27.20;99.90
52869;DHT22;39100;53.480;6.158;2023-06-24T14:10:05;27.20;99.90
52869;DHT22;39100;53.480;6.158;2023-06-24T14:12:31;27.30;99.90
52869;DHT22;39100;53.480;6.158;2023-06-24T14:14:57;27.10;99.90
52869;DHT22;39100;53.480;6.158;2023-06-24T14:17:23;27.10;99.90
52869;DHT22;39100;53.480;6.158;2023-06-24T14:19:49;27.10;99.90
52869;DHT22;39100;53.480;6.158;2023-06-24T14:22:15;26.90;99.90
52869;DHT22;39100;53.480;6.158;2023-06-24T14:24:42;26.80;99.90
52869;DHT22;39100;53.480;6.158;2023-06-24T14:27:08;26.80;99.90
52869;DHT22;39100;53.480;6.158;2023-06-24T14:29:34;26.90;99.90
52869;DHT22;39100;53.480;6.158;2023-06-24T14:31:59;27.20;99.90
52869;DHT22;39100;53.480;6.158;2023-06-24T14:34:26;26.90;99.90
52869;DHT22;39100;53.480;6.158;2023-06-24T14:36:55;26.80;99.90
52869;DHT22;39100;53.480;6.158;2023-06-24T14:39:20;26.80;99.90
52869;DHT22;39100;53.480;6.158;2023-06-24T14:41:46;27.00;99.90
52869;DHT22;39100;53.480;6.158;2023-06-24T14:44:11;26.90;99.90
52869;DHT22;39100;53.480;6.158;2023-06-24T14:46:37;26.70;99.90
52869;DHT22;39100;53.480;6.158;2023-06-24T14:49:03;26.70;99.90
52869;DHT22;39100;53.480;6.158;2023-06-24T14:51:28;26.70;99.90
52869;DHT22;39100;53.480;6.158;2023-06-24T14:53:54;26.70;99.90
52869;DHT22;39100;53.480;6.158;2023-06-24T14:56:19;26.90;99.90
52869;DHT22;39100;53.480;6.158;2023-06-24T14:58:45;26.90;99.90
52869;DHT22;39100;53.480;6.158;2023-06-24T15:01:10;26.70;99.90
52869;DHT22;39100;53.480;6.158;2023-06-24T15:03:36;26.50;99.90
52869;DHT22;39100;53.480;6.158;2023-06-24T15:06:02;26.50;99.90
52869;DHT22;39100;53.480;6.158;2023-06-24T15:08:27;26.60;99.90
52869;DHT22;39100;53.480;6.158;2023-06-24T15:10:53;26.70;99.90
52869;DHT22;39100;53.480;6.158;2023-06-24T15:13:18;26.50;99.90
52869;DHT22;39100;53.480;6.158;2023-06-24T15:15:44;26.30;99.90
52869;DHT22;39100;53.480;6.158;2023-06-24T15:18:11;26.00;99.90
52869;DHT22;39100;53.480;6.158;2023-06-24T15:20:36;25.80;99.90
52869;DHT22;39100;53.480;6.158;2023-06-24T15:23:02;26.00;99.90
52869;DHT22;39100;53.480;6.158;2023-06-24T15:25:29;26.20;99.90
52869;DHT22;39100;53.480;6.158;2023-06-24T15:27:54;26.10;99.90
52869;DHT22;39100;53.480;6.158;2023-06-24T15:30:20;26.00;99.90
52869;DHT22;39100;53.480;6.158;2023-06-24T15:32:45;26.20;99.90
52869;DHT22;39100;53.480;6.158;2023-06-24T15:35:11;26.00;99.90
52869;DHT22;39100;53.480;6.158;2023-06-24T15:37:37;26.10;99.90